Time;durP1;ratioP1;P1;durP2;ratioP2;P2;SDS_P1;SDS_P2;PMS_P1;PMS_P2;Temp;Humidity;BMP_temperature;BMP_pressure;BME280_temperature;BME280_humidity;BME280_pressure;Samples;Min_cycle;Max_cycle;Signal;HPM_P1;HPM_P2
2023/09/02 00:02:16;;;;;;;15.00;5.20;;;;;;;16.27;93.99;100367.91;110556;1273;22148;-79
2023/09/02 00:04:47;;;;;;;14.60;5.20;;;;;;;16.24;94.18;100362.13;110607;1273;22340;-79
2023/09/02 00:07:18;;;;;;;16.20;6.20;;;;;;;16.19;94.32;100366.40;110616;1266;22984;-78
2023/09/02 00:09:49;;;;;;;13.40;5.80;;;;;;;16.17;94.41;100365.17;110584;1270;23060;-79
2023/09/02 00:12:19;;;;;;;13.30;5.00;;;;;;;16.18;94.70;100368.74;110605;1267;23118;-78
2023/09/02 00:14:50;;;;;;;12.80;4.50;;;;;;;16.17;94.63;100369.05;110631;1269;22378;-79
2023/09/02 00:17:21;;;;;;;17.00;4.50;;;;;;;16.17;94.75;100372.13;110608;1273;22184;-78
2023/09/02 00:19:52;;;;;;;12.90;4.30;;;;;;;16.18;94.65;100367.48;110534;1267;22321;-79
2023/09/02 00:22:23;;;;;;;12.00;5.00;;;;;;;16.17;94.71;100365.94;110614;1267;22265;-78
2023/09/02 00:24:53;;;;;;;14.30;4.70;;;;;;;16.17;94.89;100371.46;110587;1273;22228;-78
2023/09/02 00:27:24;;;;;;;13.70;4.80;;;;;;;16.17;94.87;100366.59;110627;1251;22353;-79
2023/09/02 00:29:55;;;;;;;9.70;3.70;;;;;;;16.15;94.98;100369.73;110643;1267;23319;-79
2023/09/02 00:32:25;;;;;;;13.60;3.50;;;;;;;16.13;95.08;100368.72;110623;1272;22626;-79
2023/09/02 00:34:56;;;;;;;12.60;4.00;;;;;;;16.08;95.25;100369.63;110611;1273;22369;-78
2023/09/02 00:37:27;;;;;;;11.90;3.80;;;;;;;16.03;95.33;100369.45;110567;1273;22183;-78
2023/09/02 00:39:57;;;;;;;11.50;3.70;;;;;;;16.00;95.45;100364.98;110574;1272;22317;-79
2023/09/02 00:42:31;;;;;;;10.60;4.00;;;;;;;15.99;95.53;100367.50;109446;1266;22855;-78
2023/09/02 00:45:02;;;;;;;9.80;4.10;;;;;;;15.99;95.62;100375.38;107749;1273;23324;-78
2023/09/02 00:47:34;;;;;;;11.60;4.00;;;;;;;15.99;95.65;100377.78;107786;1263;22564;-78
2023/09/02 00:50:06;;;;;;;14.40;4.20;;;;;;;15.99;95.77;100381.31;107837;1251;23402;-78
2023/09/02 00:52:38;;;;;;;12.10;4.60;;;;;;;15.99;95.89;100380.61;107723;1273;22529;-78
2023/09/02 00:55:09;;;;;;;10.10;4.70;;;;;;;16.00;95.95;100381.64;107724;1272;24237;-79
2023/09/02 00:57:42;;;;;;;10.40;4.30;;;;;;;16.01;96.06;100383.06;107631;1273;22558;-78
2023/09/02 01:00:16;;;;;;;16.30;4.40;;;;;;;15.99;96.12;100385.11;107589;1266;26611;-78
2023/09/02 01:02:48;;;;;;;13.80;4.00;;;;;;;15.98;96.16;100390.07;110631;1273;22919;-78
2023/09/02 01:05:21;;;;;;;12.80;4.40;;;;;;;15.97;96.09;100399.76;110625;1273;22150;-78
2023/09/02 01:07:54;;;;;;;14.80;4.20;;;;;;;15.96;96.28;100397.49;110539;1270;23221;-78
2023/09/02 01:10:25;;;;;;;10.50;4.10;;;;;;;15.96;96.44;100404.50;110506;1266;23359;-77
2023/09/02 01:12:56;;;;;;;13.50;4.60;;;;;;;15.94;96.41;100405.17;110473;1266;23276;-78
2023/09/02 01:15:27;;;;;;;11.80;4.50;;;;;;;15.92;96.44;100410.30;110532;1270;24202;-77
2023/09/02 01:17:58;;;;;;;14.40;4.30;;;;;;;15.93;96.51;100411.94;110584;1262;22263;-78
2023/09/02 01:20:42;;;;;;;10.70;4.30;;;;;;;15.91;96.68;100406.61;110504;1266;22774;-77
2023/09/02 01:23:33;;;;;;;11.80;3.90;;;;;;;15.92;96.81;100403.59;110551;1266;23304;-77
2023/09/02 01:26:25;;;;;;;11.10;3.80;;;;;;;15.91;96.75;100404.98;110553;1267;22265;-78
2023/09/02 01:29:00;;;;;;;12.50;4.20;;;;;;;15.91;96.80;100403.54;110568;1273;22142;-77
2023/09/02 01:31:33;;;;;;;13.70;4.40;;;;;;;15.88;96.88;100407.13;110479;1273;22280;-77
2023/09/02 01:34:07;;;;;;;9.80;3.80;;;;;;;15.87;96.98;100408.98;110597;1273;22166;-78
2023/09/02 01:36:41;;;;;;;11.20;3.40;;;;;;;15.87;97.15;100412.30;110671;1267;22414;-78
2023/09/02 01:39:13;;;;;;;14.40;4.00;;;;;;;15.86;97.26;100415.73;110755;1266;22202;-78
2023/09/02 01:41:45;;;;;;;18.20;4.80;;;;;;;15.85;97.27;100412.46;110611;1266;22272;-78
2023/09/02 01:44:17;;;;;;;11.50;4.50;;;;;;;15.87;97.28;100413.53;110572;1272;22377;-78
2023/09/02 01:46:48;;;;;;;12.60;5.00;;;;;;;15.87;97.36;100413.16;110585;1267;22291;-79
2023/09/02 01:49:19;;;;;;;14.40;5.60;;;;;;;15.87;97.42;100411.33;110540;1267;24301;-79
2023/09/02 01:51:52;;;;;;;15.50;5.30;;;;;;;15.86;97.54;100410.81;110580;1270;22176;-78
2023/09/02 01:54:24;;;;;;;13.00;4.80;;;;;;;15.86;97.71;100415.16;110430;1266;251383;-78
2023/09/02 01:56:56;;;;;;;11.00;3.90;;;;;;;15.86;97.52;100415.58;110610;1273;22314;-78
2023/09/02 01:59:26;;;;;;;12.00;4.30;;;;;;;15.88;97.67;100420.34;110597;1266;22148;-78
2023/09/02 02:01:57;;;;;;;11.90;4.80;;;;;;;15.89;97.77;100427.75;110519;1262;23138;-78
2023/09/02 02:04:34;;;;;;;16.80;5.60;;;;;;;15.89;98.01;100431.44;110532;1269;22292;-78
2023/09/02 02:07:10;;;;;;;14.70;5.70;;;;;;;15.89;97.94;100432.11;110566;1273;22389;-79
2023/09/02 02:09:44;;;;;;;17.60;5.70;;;;;;;15.91;97.99;100434.72;110553;1273;22185;-79
2023/09/02 02:12:15;;;;;;;15.10;5.00;;;;;;;15.92;97.96;100434.62;110551;1269;22355;-79
2023/09/02 02:14:47;;;;;;;14.40;5.60;;;;;;;15.93;98.23;100433.44;110542;1266;22284;-79
2023/09/02 02:17:18;;;;;;;17.00;5.50;;;;;;;15.92;98.25;100432.11;110538;1266;22428;-79
2023/09/02 02:19:49;;;;;;;15.00;5.70;;;;;;;15.92;98.52;100428.02;110546;1259;22166;-78
2023/09/02 02:22:20;;;;;;;11.90;4.80;;;;;;;15.93;98.59;100434.88;110525;1267;22161;-79
2023/09/02 02:24:50;;;;;;;13.00;5.10;;;;;;;15.93;98.70;100434.51;110531;1273;23151;-78
2023/09/02 02:27:22;;;;;;;16.60;6.30;;;;;;;15.94;98.74;100434.72;110554;1261;22235;-79
2023/09/02 02:29:53;;;;;;;17.80;6.60;;;;;;;15.92;98.79;100431.14;110511;1267;23133;-79
2023/09/02 02:32:24;;;;;;;17.30;5.80;;;;;;;15.92;98.92;100431.96;110533;1266;22146;-78
2023/09/02 02:34:55;;;;;;;16.10;5.90;;;;;;;15.93;99.01;100433.85;110538;1266;22213;-78
2023/09/02 02:37:26;;;;;;;19.30;6.60;;;;;;;15.94;99.07;100432.83;110538;1266;22175;-78
2023/09/02 02:39:56;;;;;;;13.70;5.70;;;;;;;15.94;99.07;100430.77;110539;1267;23325;-79
2023/09/02 02:42:27;;;;;;;15.50;6.30;;;;;;;15.95;99.22;100436.97;110535;1270;22199;-78
2023/09/02 02:44:58;;;;;;;18.00;6.90;;;;;;;15.96;99.44;100440.05;110541;1266;22153;-79
2023/09/02 02:47:29;;;;;;;14.50;6.40;;;;;;;15.97;99.45;100441.32;110529;1273;22166;-78
2023/09/02 02:49:59;;;;;;;18.10;6.60;;;;;;;15.98;99.52;100439.11;110540;1267;23205;-78
2023/09/02 02:52:30;;;;;;;18.00;6.60;;;;;;;15.97;99.56;100438.41;110475;1273;22149;-79
2023/09/02 02:55:03;;;;;;;15.90;6.70;;;;;;;15.96;99.57;100439.33;110520;1266;22344;-78
2023/09/02 02:57:34;;;;;;;18.20;7.10;;;;;;;15.93;99.78;100436.77;110568;1269;23311;-78
2023/09/02 03:00:07;;;;;;;19.40;7.20;;;;;;;15.91;99.82;100439.58;110528;1266;22342;-78
2023/09/02 03:02:38;;;;;;;16.70;7.80;;;;;;;15.91;99.90;100440.10;110512;1270;23022;-78
2023/09/02 03:05:10;;;;;;;15.70;6.60;;;;;;;15.91;100.00;100440.96;110543;1273;22267;-79
2023/09/02 03:07:42;;;;;;;19.10;6.50;;;;;;;15.92;99.99;100443.32;110539;1263;22302;-78
2023/09/02 03:10:13;;;;;;;15.50;6.40;;;;;;;15.92;100.00;100446.34;110526;1273;22314;-79
2023/09/02 03:12:44;;;;;;;14.80;6.40;;;;;;;15.92;100.00;100449.72;110591;1266;22873;-79
2023/09/02 03:15:16;;;;;;;12.90;6.40;;;;;;;15.92;100.00;100450.13;110514;1269;22208;-79
2023/09/02 03:17:48;;;;;;;18.20;6.40;;;;;;;15.94;100.00;100447.61;110499;1265;22286;-78
2023/09/02 03:20:20;;;;;;;16.80;7.00;;;;;;;15.95;100.00;100445.98;110475;1266;22248;-79
2023/09/02 03:22:51;;;;;;;17.10;7.10;;;;;;;15.95;100.00;100447.26;110536;1266;23060;-77
2023/09/02 03:25:22;;;;;;;14.00;6.50;;;;;;;15.96;100.00;100446.95;110576;1272;22241;-79
2023/09/02 03:27:52;;;;;;;15.20;6.50;;;;;;;15.97;100.00;100445.83;110527;1272;22419;-78
2023/09/02 03:30:23;;;;;;;16.30;7.20;;;;;;;15.98;100.00;100448.69;110576;1266;22688;-79
2023/09/02 03:32:54;;;;;;;15.70;6.90;;;;;;;15.98;100.00;100447.27;110545;1269;22169;-79
2023/09/02 03:35:25;;;;;;;18.80;7.10;;;;;;;15.98;100.00;100446.09;110546;1267;22349;-78
2023/09/02 03:37:56;;;;;;;19.00;7.50;;;;;;;15.99;100.00;100447.31;110592;1266;22224;-79
2023/09/02 03:40:27;;;;;;;17.20;7.40;;;;;;;15.99;100.00;100450.44;110552;1272;22275;-79
2023/09/02 03:42:58;;;;;;;18.00;6.90;;;;;;;15.98;100.00;100454.27;110476;1267;22370;-79
2023/09/02 03:45:29;;;;;;;16.90;5.40;;;;;;;15.97;100.00;100456.52;110523;1265;22327;-80
2023/09/02 03:47:59;;;;;;;17.30;6.90;;;;;;;15.95;100.00;100462.36;110510;1265;23280;-79
2023/09/02 03:50:30;;;;;;;16.00;6.40;;;;;;;15.95;100.00;100467.95;110539;1266;23172;-78
2023/09/02 03:53:01;;;;;;;19.90;6.80;;;;;;;15.96;100.00;100467.33;110508;1262;22324;-78
2023/09/02 03:55:32;;;;;;;13.20;5.60;;;;;;;15.96;100.00;100470.45;110520;1266;23032;-79
2023/09/02 03:58:03;;;;;;;16.50;6.50;;;;;;;15.97;100.00;100470.30;110524;1273;22212;-79
2023/09/02 04:00:34;;;;;;;15.90;6.80;;;;;;;15.98;100.00;100474.19;110560;1267;22355;-80
2023/09/02 04:03:05;;;;;;;15.30;7.10;;;;;;;15.98;100.00;100478.59;110569;1272;22935;-79
2023/09/02 04:05:36;;;;;;;20.00;7.90;;;;;;;15.97;100.00;100479.61;110555;1266;22368;-79
2023/09/02 04:08:07;;;;;;;18.20;7.10;;;;;;;15.98;100.00;100482.48;110547;1269;22335;-78
2023/09/02 04:10:38;;;;;;;17.30;7.80;;;;;;;15.99;100.00;100483.00;110553;1266;22374;-79
2023/09/02 04:13:09;;;;;;;15.70;7.70;;;;;;;16.00;100.00;100482.63;110546;1266;22272;-78
2023/09/02 04:15:40;;;;;;;23.30;7.50;;;;;;;16.02;100.00;100483.45;110538;1269;22175;-79
2023/09/02 04:18:10;;;;;;;17.00;6.20;;;;;;;16.03;100.00;100488.84;110517;1273;22287;-78
2023/09/02 04:20:43;;;;;;;12.70;5.70;;;;;;;16.04;100.00;100491.91;110477;1266;22377;-79
2023/09/02 04:23:14;;;;;;;14.70;5.60;;;;;;;16.05;100.00;100490.16;110529;1273;22247;-79
2023/09/02 04:25:53;;;;;;;12.80;5.80;;;;;;;16.06;100.00;100493.44;110570;1265;22379;-80
2023/09/02 04:28:25;;;;;;;15.30;5.70;;;;;;;16.07;100.00;100496.06;110595;1266;22286;-79
2023/09/02 04:30:59;;;;;;;13.00;4.60;;;;;;;16.06;100.00;100497.70;110547;1269;22304;-79
2023/09/02 04:33:30;;;;;;;15.00;4.20;;;;;;;16.07;100.00;100502.73;110601;1273;23156;-79
2023/09/02 04:36:02;;;;;;;11.20;4.50;;;;;;;16.08;100.00;100510.25;110543;1266;22133;-79
2023/09/02 04:38:34;;;;;;;12.90;4.60;;;;;;;16.08;100.00;100508.10;110549;1273;22296;-79
2023/09/02 04:41:06;;;;;;;12.50;4.80;;;;;;;16.11;100.00;100507.79;110536;1272;23009;-79
2023/09/02 04:43:38;;;;;;;10.90;4.70;;;;;;;16.12;100.00;100512.50;110554;1265;22312;-79
2023/09/02 04:46:12;;;;;;;14.90;5.00;;;;;;;16.13;100.00;100511.98;110551;1273;22231;-79
2023/09/02 04:48:44;;;;;;;12.30;4.90;;;;;;;16.12;100.00;100510.04;110544;1266;22160;-79
2023/09/02 04:51:15;;;;;;;13.50;5.50;;;;;;;16.12;100.00;100514.91;110504;1273;22210;-78
2023/09/02 04:53:46;;;;;;;15.90;5.40;;;;;;;16.12;100.00;100514.90;110523;1265;22256;-79
2023/09/02 04:56:20;;;;;;;12.60;4.40;;;;;;;16.14;100.00;100515.33;110554;1268;22157;-79
2023/09/02 04:58:52;;;;;;;13.60;4.70;;;;;;;16.14;100.00;100515.22;110545;1266;23282;-79
2023/09/02 05:01:23;;;;;;;11.80;4.70;;;;;;;16.14;100.00;100517.77;110546;1267;22378;-79
2023/09/02 05:03:54;;;;;;;11.80;3.80;;;;;;;16.13;100.00;100517.77;110565;1266;23064;-79
2023/09/02 05:06:25;;;;;;;12.10;4.50;;;;;;;16.14;100.00;100525.25;110553;1267;22350;-79
2023/09/02 05:08:56;;;;;;;12.10;5.10;;;;;;;16.13;100.00;100523.92;110536;1273;23138;-79
2023/09/02 05:11:26;;;;;;;13.60;5.10;;;;;;;16.13;100.00;100528.02;110605;1259;22693;-80
2023/09/02 05:13:57;;;;;;;13.80;5.50;;;;;;;16.14;100.00;100527.65;110618;1266;22997;-81
2023/09/02 05:16:28;;;;;;;15.20;5.90;;;;;;;16.14;100.00;100530.02;110572;1270;22193;-79
2023/09/02 05:18:59;;;;;;;17.70;6.30;;;;;;;16.15;100.00;100530.02;110574;1268;22962;-79
2023/09/02 05:21:30;;;;;;;15.20;6.40;;;;;;;16.15;100.00;100529.40;110596;1273;22233;-80
2023/09/02 05:24:01;;;;;;;18.20;8.10;;;;;;;16.17;100.00;100531.25;109748;1269;22613;-80
2023/09/02 05:26:31;;;;;;;17.50;7.30;;;;;;;16.18;100.00;100533.09;110044;1262;22520;-81
2023/09/02 05:29:03;;;;;;;15.60;6.70;;;;;;;16.18;100.00;100534.11;109694;1270;22628;-79
2023/09/02 05:31:35;;;;;;;16.30;6.80;;;;;;;16.18;100.00;100536.42;107946;1266;22667;-78
2023/09/02 05:34:05;;;;;;;16.30;7.50;;;;;;;16.20;100.00;100532.84;107684;1269;24734;-79
2023/09/02 05:36:36;;;;;;;15.10;6.60;;;;;;;16.21;100.00;100540.27;107849;1266;25272;-79
2023/09/02 05:39:07;;;;;;;19.10;7.30;;;;;;;16.24;100.00;100542.44;107750;1265;23929;-77
2023/09/02 05:41:38;;;;;;;15.40;6.10;;;;;;;16.28;100.00;100543.60;107741;1266;22528;-77
2023/09/02 05:44:09;;;;;;;14.50;4.40;;;;;;;16.32;100.00;100542.73;107728;1267;23017;-76
2023/09/02 05:46:40;;;;;;;12.20;4.00;;;;;;;16.37;100.00;100544.07;107673;1266;25271;-76
2023/09/02 05:49:12;;;;;;;13.50;3.90;;;;;;;16.40;100.00;100545.61;107783;1266;22545;-75
2023/09/02 05:51:43;;;;;;;8.60;3.00;;;;;;;16.43;100.00;100544.43;110548;1269;22893;-76
2023/09/02 05:54:13;;;;;;;10.10;2.90;;;;;;;16.46;100.00;100549.91;110495;1266;22325;-76
2023/09/02 05:56:47;;;;;;;11.40;3.70;;;;;;;16.50;100.00;100553.73;110543;1272;22147;-76
2023/09/02 05:59:18;;;;;;;8.90;2.80;;;;;;;16.56;100.00;100558.90;110493;1265;22317;-76
2023/09/02 06:01:49;;;;;;;8.50;2.50;;;;;;;16.63;100.00;100563.16;110516;1266;22186;-75
2023/09/02 06:04:20;;;;;;;11.00;2.20;;;;;;;16.69;100.00;100567.25;110538;1266;22320;-76
2023/09/02 06:06:50;;;;;;;8.90;2.20;;;;;;;16.74;100.00;100568.48;110524;1266;22207;-76
2023/09/02 06:09:26;;;;;;;6.10;2.30;;;;;;;16.79;100.00;100568.73;110516;1273;22118;-75
2023/09/02 06:11:56;;;;;;;9.30;2.40;;;;;;;16.84;100.00;100568.02;110524;1267;22376;-75
2023/09/02 06:14:27;;;;;;;15.90;3.80;;;;;;;16.92;100.00;100565.79;110545;1266;23066;-76
2023/09/02 06:17:01;;;;;;;8.80;2.50;;;;;;;16.99;100.00;100571.17;110532;1267;23111;-76
2023/09/02 06:19:31;;;;;;;11.10;3.00;;;;;;;17.03;100.00;100568.08;110516;1267;23305;-76
2023/09/02 06:22:02;;;;;;;10.40;2.60;;;;;;;17.08;100.00;100572.53;110555;1262;22189;-76
2023/09/02 06:24:33;;;;;;;11.40;2.90;;;;;;;17.14;100.00;100575.65;110515;1273;22151;-76
2023/09/02 06:27:04;;;;;;;8.50;2.40;;;;;;;17.16;100.00;100574.62;110570;1269;23035;-75
2023/09/02 06:29:35;;;;;;;9.90;2.90;;;;;;;17.23;100.00;100575.11;110535;1273;22335;-75
2023/09/02 06:32:06;;;;;;;8.20;3.10;;;;;;;17.28;100.00;100575.09;110580;1273;22335;-75
2023/09/02 06:34:37;;;;;;;9.30;3.10;;;;;;;17.33;100.00;100573.40;110550;1266;22471;-76
2023/09/02 06:37:07;;;;;;;10.00;2.90;;;;;;;17.36;100.00;100578.61;110529;1273;22196;-76
2023/09/02 06:39:38;;;;;;;13.10;3.70;;;;;;;17.37;100.00;100583.69;110531;1273;22911;-75
2023/09/02 06:42:09;;;;;;;11.60;3.00;;;;;;;17.37;100.00;100589.23;110510;1262;22213;-76
2023/09/02 06:44:40;;;;;;;10.10;3.60;;;;;;;17.38;100.00;100590.10;110548;1272;22108;-76
2023/09/02 06:47:13;;;;;;;9.90;3.60;;;;;;;17.35;100.00;100590.77;110533;1269;23546;-77
2023/09/02 06:49:43;;;;;;;11.90;4.00;;;;;;;17.34;100.00;100593.60;110552;1269;22434;-76
2023/09/02 06:52:14;;;;;;;12.90;3.50;;;;;;;17.34;100.00;100598.84;110516;1266;22309;-76
2023/09/02 06:54:47;;;;;;;13.40;3.60;;;;;;;17.37;100.00;100601.34;110548;1266;22246;-76
2023/09/02 06:57:18;;;;;;;9.60;3.30;;;;;;;17.40;100.00;100603.85;110542;1266;22375;-77
2023/09/02 06:59:49;;;;;;;13.10;3.50;;;;;;;17.41;100.00;100608.92;110557;1272;22179;-76
2023/09/02 07:02:19;;;;;;;15.40;4.80;;;;;;;17.43;100.00;100610.52;110483;1262;22318;-76
2023/09/02 07:04:51;;;;;;;9.50;3.90;;;;;;;17.44;100.00;100612.86;110518;1273;22200;-75
2023/09/02 07:07:22;;;;;;;12.90;3.50;;;;;;;17.46;100.00;100613.12;110560;1266;22604;-76
2023/09/02 07:09:53;;;;;;;11.40;3.70;;;;;;;17.47;100.00;100618.60;110549;1266;22375;-76
2023/09/02 07:12:24;;;;;;;14.70;4.00;;;;;;;17.50;100.00;100620.72;110553;1266;22404;-77
2023/09/02 07:14:55;;;;;;;10.80;3.60;;;;;;;17.52;100.00;100616.27;110579;1266;22409;-77
2023/09/02 07:17:26;;;;;;;10.30;3.60;;;;;;;17.54;100.00;100618.05;110470;1266;22193;-76
2023/09/02 07:19:59;;;;;;;9.20;3.20;;;;;;;17.54;100.00;100623.04;110505;1273;22146;-76
2023/09/02 07:22:30;;;;;;;8.50;3.00;;;;;;;17.54;100.00;100622.81;110525;1272;22317;-77
2023/09/02 07:25:01;;;;;;;11.00;4.20;;;;;;;17.56;100.00;100626.45;110602;1269;22169;-77
2023/09/02 07:27:34;;;;;;;9.20;3.40;;;;;;;17.61;100.00;100628.44;110598;1272;23382;-77
2023/09/02 07:30:06;;;;;;;10.70;3.90;;;;;;;17.63;100.00;100630.48;110590;1259;22207;-77
2023/09/02 07:32:36;;;;;;;10.80;3.60;;;;;;;17.66;100.00;100633.73;110576;1273;22161;-76
2023/09/02 07:35:08;;;;;;;10.90;4.00;;;;;;;17.70;100.00;100627.90;110585;1266;22218;-77
2023/09/02 07:37:39;;;;;;;12.30;4.60;;;;;;;17.74;100.00;100626.70;110588;1266;22171;-76
2023/09/02 07:40:12;;;;;;;13.00;3.80;;;;;;;17.77;100.00;100630.69;110600;1272;22196;-76
2023/09/02 07:42:42;;;;;;;11.10;4.10;;;;;;;17.81;100.00;100631.91;110566;1269;22401;-77
2023/09/02 07:45:16;;;;;;;10.00;3.90;;;;;;;17.86;100.00;100625.84;110565;1266;22280;-77
2023/09/02 07:47:47;;;;;;;10.20;2.90;;;;;;;17.89;100.00;100625.14;110594;1272;22230;-77
2023/09/02 07:50:18;;;;;;;8.50;3.10;;;;;;;17.93;100.00;100629.96;110567;1273;22202;-75
2023/09/02 07:52:50;;;;;;;10.30;2.80;;;;;;;17.98;100.00;100634.86;110565;1273;22860;-76
2023/09/02 07:55:23;;;;;;;9.70;2.90;;;;;;;18.03;100.00;100642.02;110571;1271;22938;-76
2023/09/02 07:57:57;;;;;;;7.70;2.60;;;;;;;18.08;100.00;100641.02;110555;1272;22331;-75
2023/09/02 08:00:28;;;;;;;12.50;2.90;;;;;;;18.16;100.00;100643.70;110619;1272;22196;-75
2023/09/02 08:03:00;;;;;;;11.20;3.10;;;;;;;18.28;100.00;100646.56;110335;1266;23160;-76
2023/09/02 08:05:30;;;;;;;9.20;2.10;;;;;;;18.37;100.00;100650.05;108339;1257;76954;-61
2023/09/02 08:08:02;;;;;;;7.20;1.90;;;;;;;18.44;100.00;100648.54;106609;1269;24292;-62
2023/09/02 08:10:32;;;;;;;7.20;2.30;;;;;;;18.53;100.00;100653.64;106516;1268;24266;-61
2023/09/02 08:13:04;;;;;;;9.70;2.40;;;;;;;18.63;99.99;100655.63;106580;1262;22562;-64
2023/09/02 08:15:36;;;;;;;7.30;1.90;;;;;;;18.71;99.87;100656.89;110241;1261;23160;-61
2023/09/02 08:18:07;;;;;;;5.70;1.80;;;;;;;18.78;99.63;100663.52;110360;1268;22787;-61
2023/09/02 08:20:39;;;;;;;9.50;2.40;;;;;;;18.82;99.06;100664.68;110270;1269;22206;-62
2023/09/02 08:23:10;;;;;;;9.40;2.50;;;;;;;18.82;98.13;100666.79;110255;1261;22209;-62
2023/09/02 08:25:41;;;;;;;11.60;2.60;;;;;;;18.77;97.69;100671.05;110326;1269;22200;-62
2023/09/02 08:28:12;;;;;;;9.50;2.50;;;;;;;18.74;97.60;100671.27;110380;1276;22395;-63
2023/09/02 08:30:43;;;;;;;6.60;1.90;;;;;;;18.75;97.64;100674.09;110315;1269;22251;-62
2023/09/02 08:33:14;;;;;;;8.00;2.50;;;;;;;18.82;97.48;100674.87;110310;1272;22272;-62
2023/09/02 08:35:45;;;;;;;6.20;1.90;;;;;;;18.88;97.51;100682.43;110328;1268;22250;-63
2023/09/02 08:38:17;;;;;;;7.10;1.70;;;;;;;18.89;97.22;100679.18;110370;1275;22193;-62
2023/09/02 08:40:50;;;;;;;5.50;1.60;;;;;;;18.86;97.31;100683.64;110376;1272;23385;-61
2023/09/02 08:43:22;;;;;;;7.60;2.00;;;;;;;18.86;97.03;100685.59;110351;1275;22256;-62
2023/09/02 08:45:57;;;;;;;8.80;1.80;;;;;;;18.89;96.21;100688.44;110329;1269;22249;-61
2023/09/02 08:48:33;;;;;;;4.80;1.30;;;;;;;18.92;95.70;100684.81;110297;1269;22525;-63
2023/09/02 08:51:04;;;;;;;6.10;1.60;;;;;;;18.97;95.44;100680.82;110348;1272;22181;-61
2023/09/02 08:53:35;;;;;;;4.60;1.20;;;;;;;19.04;95.08;100679.37;110362;1260;23627;-61
2023/09/02 08:56:09;;;;;;;6.20;1.60;;;;;;;19.12;94.94;100681.77;108567;1253;25304;-63
2023/09/02 08:58:42;;;;;;;5.60;1.80;;;;;;;19.20;94.53;100688.34;110347;1275;23394;-64
2023/09/02 09:01:19;;;;;;;7.60;2.10;;;;;;;19.20;94.01;100695.79;110359;1268;23245;-63
2023/09/02 09:03:53;;;;;;;5.80;1.60;;;;;;;19.23;93.88;100693.86;110360;1275;22124;-63
2023/09/02 09:06:25;;;;;;;5.80;2.20;;;;;;;19.32;93.96;100698.88;110414;1275;22158;-63
2023/09/02 09:08:58;;;;;;;5.40;1.70;;;;;;;19.42;93.69;100701.89;110358;1269;22303;-62
2023/09/02 09:11:31;;;;;;;5.50;2.00;;;;;;;19.55;93.93;100704.20;110406;1274;23193;-63
2023/09/02 09:14:05;;;;;;;5.00;1.70;;;;;;;19.67;92.89;100705.27;110303;1269;23664;-63
2023/09/02 09:16:40;;;;;;;7.60;2.40;;;;;;;19.72;91.37;100707.41;110262;1271;22208;-63
2023/09/02 09:19:11;;;;;;;6.40;2.30;;;;;;;19.73;91.36;100704.98;110354;1268;22221;-63
2023/09/02 09:21:42;;;;;;;5.80;2.30;;;;;;;19.75;90.77;100711.70;110376;1273;23475;-62
2023/09/02 09:24:14;;;;;;;5.60;2.30;;;;;;;19.73;90.55;100711.52;110412;1268;22427;-63
2023/09/02 09:26:46;;;;;;;4.20;1.30;;;;;;;19.70;90.20;100713.30;110301;1268;23091;-63
2023/09/02 09:29:18;;;;;;;4.90;1.40;;;;;;;19.68;89.79;100717.96;110375;1268;22165;-63
2023/09/02 09:31:50;;;;;;;4.80;1.50;;;;;;;19.66;89.88;100715.34;110307;1273;22433;-64
2023/09/02 09:34:20;;;;;;;3.70;1.10;;;;;;;19.69;90.08;100711.98;110305;1270;22595;-63
2023/09/02 09:36:58;;;;;;;3.90;1.20;;;;;;;19.73;89.10;100719.14;110329;1273;22186;-64
2023/09/02 09:39:41;;;;;;;6.20;1.10;;;;;;;19.81;88.54;100724.73;110346;1271;22216;-62
2023/09/02 09:42:13;;;;;;;3.40;1.10;;;;;;;19.86;88.02;100728.98;110327;1275;22160;-62
2023/09/02 09:44:58;;;;;;;9.20;1.30;;;;;;;19.93;88.15;100727.77;110352;1276;22214;-62
2023/09/02 09:47:29;;;;;;;7.20;1.50;;;;;;;19.98;87.54;100729.16;110279;1273;22219;-63
2023/09/02 09:53:04;;;;;;;5.20;1.40;;;;;;;20.22;87.75;100729.97;103347;1304;545764;-62
2023/09/02 09:55:36;;;;;;;4.60;0.80;;;;;;;20.33;87.12;100734.60;109850;1269;22337;-62
2023/09/02 09:58:07;;;;;;;4.10;0.90;;;;;;;20.40;85.93;100739.60;109828;1276;22363;-62
2023/09/02 10:00:38;;;;;;;3.40;0.70;;;;;;;20.43;85.34;100737.44;109865;1273;22213;-62
2023/09/02 10:03:09;;;;;;;5.90;1.00;;;;;;;20.43;85.07;100741.05;109920;1274;23273;-63
2023/09/02 10:05:41;;;;;;;5.90;1.00;;;;;;;20.47;84.70;100743.13;105798;1272;5388275;-62
2023/09/02 10:08:12;;;;;;;4.00;1.10;;;;;;;20.50;84.65;100742.04;110479;1272;22184;-62
2023/09/02 10:10:43;;;;;;;4.00;1.20;;;;;;;20.53;84.28;100742.46;110385;1264;22367;-65
2023/09/02 10:13:14;;;;;;;5.30;1.10;;;;;;;20.55;84.20;100738.16;110402;1273;22227;-62
2023/09/02 10:15:47;;;;;;;6.50;0.90;;;;;;;20.56;83.13;100740.21;110464;1267;22332;-61
2023/09/02 10:18:19;;;;;;;3.90;0.90;;;;;;;20.57;82.57;100738.86;110408;1274;22349;-62
2023/09/02 10:20:50;;;;;;;3.60;0.70;;;;;;;20.61;82.59;100737.41;110417;1263;22158;-62
2023/09/02 10:23:22;;;;;;;2.30;0.60;;;;;;;20.60;81.47;100738.50;110486;1269;22152;-62
2023/09/02 10:26:06;;;;;;;3.70;0.90;;;;;;;20.59;81.66;100740.48;110450;1267;22325;-63
2023/09/02 10:28:40;;;;;;;4.00;0.90;;;;;;;20.59;81.82;100740.78;110471;1269;22378;-63
2023/09/02 10:31:16;;;;;;;3.40;0.80;;;;;;;20.64;81.65;100744.44;110428;1267;22400;-62
2023/09/02 10:33:56;;;;;;;4.90;0.90;;;;;;;20.66;81.64;100744.30;110339;1270;22338;-63
2023/09/02 10:36:32;;;;;;;7.30;1.20;;;;;;;20.69;81.42;100748.70;110414;1263;22185;-63
2023/09/02 10:39:10;;;;;;;4.30;0.80;;;;;;;20.69;81.76;100755.66;110383;1275;22401;-63
2023/09/02 10:41:43;;;;;;;4.00;1.00;;;;;;;20.72;81.79;100755.87;110289;1261;22330;-62
2023/09/02 10:44:17;;;;;;;2.20;0.80;;;;;;;20.80;81.92;100758.95;110482;1269;22216;-62
2023/09/02 10:46:48;;;;;;;4.50;1.00;;;;;;;20.86;81.51;100760.42;110488;1272;22197;-63
2023/09/02 10:49:21;;;;;;;3.80;1.20;;;;;;;20.90;81.40;100763.39;110866;1266;22345;-61
2023/09/02 10:51:53;;;;;;;9.50;0.90;;;;;;;20.90;81.29;100766.60;110867;1266;22395;-62
2023/09/02 10:54:24;;;;;;;3.20;0.80;;;;;;;20.94;80.99;100769.16;111010;1269;22358;-62
2023/09/02 10:57:11;;;;;;;5.50;0.90;;;;;;;20.93;79.80;100769.06;111036;1264;22351;-61
2023/09/02 10:59:43;;;;;;;2.50;0.70;;;;;;;20.91;79.71;100772.41;110878;1259;22218;-62
2023/09/02 11:02:14;;;;;;;3.90;0.80;;;;;;;20.95;79.48;100765.23;110879;1260;22195;-61
2023/09/02 11:04:59;;;;;;;2.80;0.60;;;;;;;20.98;78.95;100764.36;110811;1270;22205;-62
2023/09/02 11:07:32;;;;;;;3.70;0.90;;;;;;;21.04;78.99;100766.33;110844;1267;22207;-63
2023/09/02 11:10:03;;;;;;;3.10;0.50;;;;;;;21.11;79.03;100765.69;110832;1265;23279;-62
2023/09/02 11:12:35;;;;;;;4.00;0.80;;;;;;;21.19;78.20;100764.17;110819;1263;22281;-62
2023/09/02 11:15:20;;;;;;;1.80;0.50;;;;;;;21.24;77.70;100767.55;110956;1268;23148;-62
2023/09/02 11:17:52;;;;;;;2.40;0.70;;;;;;;21.29;77.28;100765.30;110927;1264;22192;-62
2023/09/02 11:20:25;;;;;;;2.90;0.70;;;;;;;21.34;77.35;100763.41;110875;1269;22196;-62
2023/09/02 11:23:01;;;;;;;4.20;0.70;;;;;;;21.40;77.48;100770.54;110856;1256;23028;-62
2023/09/02 11:25:36;;;;;;;1.90;0.60;;;;;;;21.49;77.08;100774.61;110921;1260;22121;-62
2023/09/02 11:28:09;;;;;;;2.70;0.60;;;;;;;21.54;77.27;100773.04;110844;1263;22350;-62
2023/09/02 11:31:01;;;;;;;5.10;0.90;;;;;;;21.59;77.28;100772.44;110865;1263;22465;-62
2023/09/02 11:33:34;;;;;;;3.60;0.70;;;;;;;21.64;76.86;100778.06;110847;1263;23487;-62
2023/09/02 11:36:08;;;;;;;4.20;0.80;;;;;;;21.67;76.52;100774.61;110846;1265;22109;-62